Time;durP1;ratioP1;P1;durP2;ratioP2;P2;SDS_P1;SDS_P2;PMS_P1;PMS_P2;Temp;Humidity;BMP_temperature;BMP_pressure;BME280_temperature;BME280_humidity;BME280_pressure;Samples;Min_cycle;Max_cycle;Signal;HPM_P1;HPM_P2
2022/09/10 00:02:05;;;;;;;11.73;9.70;;;;;;;23.06;75.43;99338.69;5072609;28;20246;-72
2022/09/10 00:04:32;;;;;;;9.60;8.80;;;;;;;23.02;75.48;99340.31;5071315;28;20661;-72
2022/09/10 00:06:59;;;;;;;10.43;9.57;;;;;;;22.95;75.54;99328.97;5071450;28;20193;-72
2022/09/10 00:09:26;;;;;;;12.40;9.87;;;;;;;22.86;75.66;99330.66;5071672;28;20669;-72
2022/09/10 00:11:52;;;;;;;13.30;10.67;;;;;;;22.80;76.27;99323.66;5072336;28;20208;-73
2022/09/10 00:14:21;;;;;;;11.17;10.07;;;;;;;22.73;76.73;99322.34;5075562;28;20249;-73
2022/09/10 00:16:49;;;;;;;9.77;8.97;;;;;;;22.67;76.46;99326.16;5074962;28;20270;-73
2022/09/10 00:19:17;;;;;;;12.37;9.60;;;;;;;22.64;76.73;99329.44;5074819;28;20687;-73
2022/09/10 00:21:45;;;;;;;10.27;9.57;;;;;;;22.58;76.77;99334.03;5075463;28;20192;-72
2022/09/10 00:24:12;;;;;;;10.67;9.87;;;;;;;22.53;77.20;99331.38;5075248;28;20628;-72
2022/09/10 00:26:39;;;;;;;11.43;10.07;;;;;;;22.44;77.42;99341.13;5075699;28;20192;-72
2022/09/10 00:29:07;;;;;;;11.27;10.17;;;;;;;22.45;77.41;99342.72;5075232;28;20258;-72
2022/09/10 00:31:35;;;;;;;11.07;9.90;;;;;;;22.47;77.64;99340.63;5074671;28;20737;-72
2022/09/10 00:34:02;;;;;;;10.67;9.77;;;;;;;22.45;77.13;99331.91;5074907;28;20192;-72
2022/09/10 00:36:33;;;;;;;11.40;10.23;;;;;;;22.51;77.27;99343.56;5075606;28;20560;-72
2022/09/10 00:39:02;;;;;;;13.70;10.63;;;;;;;22.49;77.07;99330.31;5074609;28;20185;-72
2022/09/10 00:41:29;;;;;;;10.60;9.50;;;;;;;22.48;77.43;99331.41;5075124;28;20188;-73
2022/09/10 00:43:58;;;;;;;11.70;10.67;;;;;;;22.48;77.17;99339.53;5074715;28;20257;-72
2022/09/10 00:46:30;;;;;;;10.23;9.37;;;;;;;22.46;77.33;99338.97;5074754;28;20199;-72
2022/09/10 00:49:00;;;;;;;10.60;9.77;;;;;;;22.53;77.20;99346.78;5074396;28;20184;-72
2022/09/10 00:51:31;;;;;;;10.77;9.80;;;;;;;22.59;77.06;99357.34;5074673;28;20192;-73
2022/09/10 00:53:59;;;;;;;11.40;10.37;;;;;;;22.61;76.82;99352.47;5069618;28;20221;-76
2022/09/10 00:56:27;;;;;;;11.07;10.20;;;;;;;22.62;76.83;99354.06;5073764;28;20572;-77
2022/09/10 00:58:54;;;;;;;11.57;10.43;;;;;;;22.64;76.88;99359.22;5073039;28;20265;-76
2022/09/10 01:01:22;;;;;;;13.27;10.53;;;;;;;22.62;76.77;99356.78;5073697;28;20246;-76
2022/09/10 01:03:49;;;;;;;11.03;10.00;;;;;;;22.66;76.80;99363.25;5073359;28;20192;-74
2022/09/10 01:06:17;;;;;;;10.90;9.73;;;;;;;22.64;76.88;99354.63;5074033;28;20202;-73
2022/09/10 01:08:45;;;;;;;10.70;9.97;;;;;;;22.60;76.60;99347.31;5074734;28;20289;-72
2022/09/10 01:11:40;;;;;;;14.60;10.70;;;;;;;22.52;77.41;99340.59;5073905;28;20189;-73
2022/09/10 01:14:22;;;;;;;11.17;10.00;;;;;;;22.53;77.17;99338.66;5074870;28;20184;-73
2022/09/10 01:17:00;;;;;;;11.70;10.60;;;;;;;22.50;77.17;99341.94;5074207;28;20218;-73
2022/09/10 01:19:55;;;;;;;11.13;10.20;;;;;;;22.51;77.43;99355.22;5073763;28;20647;-72
2022/09/10 01:22:32;;;;;;;12.37;9.60;;;;;;;22.49;77.63;99351.13;5074024;28;20287;-72
2022/09/10 01:25:10;;;;;;;13.77;10.23;;;;;;;22.50;77.66;99348.16;5074232;28;20223;-72
2022/09/10 01:27:41;;;;;;;10.63;9.57;;;;;;;22.52;77.17;99335.16;5074321;28;20188;-72
2022/09/10 01:30:13;;;;;;;10.40;9.37;;;;;;;22.47;77.79;99343.31;5074277;28;20196;-70
2022/09/10 01:32:51;;;;;;;11.87;10.67;;;;;;;22.42;77.20;99346.00;5073649;28;20275;-70
2022/09/10 01:35:22;;;;;;;11.67;10.40;;;;;;;22.30;77.87;99353.59;5074102;28;20247;-71
2022/09/10 01:37:54;;;;;;;13.47;10.53;;;;;;;22.20;78.02;99345.53;5073510;28;20216;-72
2022/09/10 01:40:28;;;;;;;12.30;11.07;;;;;;;22.14;78.46;99338.53;5073700;28;20189;-72
2022/09/10 01:43:00;;;;;;;11.67;10.63;;;;;;;22.13;78.92;99341.50;5073744;28;20194;-71
2022/09/10 01:45:28;;;;;;;11.37;10.47;;;;;;;22.16;78.38;99335.50;5074121;28;20191;-71
2022/09/10 01:48:13;;;;;;;12.13;9.50;;;;;;;22.10;78.68;99337.44;5073523;28;20732;-72
2022/09/10 01:50:45;;;;;;;12.40;10.70;;;;;;;22.05;79.28;99342.06;5073205;28;20195;-72
2022/09/10 01:53:39;;;;;;;11.90;10.80;;;;;;;22.02;79.43;99346.13;5073279;28;20735;-72
2022/09/10 01:56:17;;;;;;;11.17;10.17;;;;;;;22.08;79.02;99355.00;5073652;28;20188;-72
2022/09/10 01:58:47;;;;;;;10.97;10.17;;;;;;;22.04;79.56;99345.81;5073054;28;20195;-72
2022/09/10 02:01:20;;;;;;;12.77;9.90;;;;;;;22.07;79.54;99343.41;5073352;28;20730;-71
2022/09/10 02:03:51;;;;;;;10.20;9.37;;;;;;;22.10;79.33;99345.56;5074169;28;20594;-71
2022/09/10 02:06:22;;;;;;;11.30;10.27;;;;;;;22.08;79.06;99327.97;5073092;28;20192;-72
2022/09/10 02:08:52;;;;;;;11.00;10.10;;;;;;;22.08;79.45;99323.38;5074021;28;20232;-72
2022/09/10 02:11:20;;;;;;;11.43;10.20;;;;;;;22.11;79.16;99314.72;5072650;28;20196;-72
2022/09/10 02:13:48;;;;;;;10.40;9.47;;;;;;;22.14;78.95;99322.28;5073073;28;20192;-72
2022/09/10 02:16:22;;;;;;;13.23;10.60;;;;;;;22.18;78.65;99327.94;5073225;28;20246;-71
2022/09/10 02:18:49;;;;;;;14.13;9.73;;;;;;;22.15;78.56;99332.00;5072724;28;20242;-72
2022/09/10 02:21:17;;;;;;;10.90;9.90;;;;;;;22.15;78.56;99340.13;5072467;28;20278;-72
2022/09/10 02:23:48;;;;;;;12.03;10.40;;;;;;;22.10;78.87;99348.28;5073728;28;20192;-72
2022/09/10 02:26:15;;;;;;;10.93;10.23;;;;;;;21.97;79.59;99348.00;5073049;28;20192;-72
2022/09/10 02:28:43;;;;;;;10.40;9.60;;;;;;;21.96;79.68;99352.59;5072871;28;20245;-72
2022/09/10 02:31:11;;;;;;;15.53;10.17;;;;;;;21.99;79.32;99351.25;5072840;28;20284;-72
2022/09/10 02:33:38;;;;;;;11.40;10.27;;;;;;;21.95;79.30;99359.09;5072410;28;20571;-72
2022/09/10 02:36:05;;;;;;;10.67;9.70;;;;;;;21.96;79.61;99362.63;5071670;28;20257;-72
2022/09/10 02:38:32;;;;;;;10.87;10.07;;;;;;;22.00;79.38;99361.78;5072648;28;20245;-72
2022/09/10 02:40:59;;;;;;;10.60;9.60;;;;;;;22.01;79.17;99339.06;5072893;28;20191;-71
2022/09/10 02:43:26;;;;;;;11.03;9.87;;;;;;;21.97;79.04;99335.28;5072862;28;20188;-72
2022/09/10 02:45:56;;;;;;;11.90;9.43;;;;;;;21.99;79.57;99335.00;5072604;28;20278;-72
2022/09/10 02:48:24;;;;;;;12.97;9.67;;;;;;;21.98;79.53;99342.34;5073307;28;20275;-72
2022/09/10 02:50:51;;;;;;;10.63;9.77;;;;;;;21.99;79.18;99346.66;5072293;28;20207;-72
2022/09/10 02:53:18;;;;;;;10.67;9.77;;;;;;;21.97;79.30;99346.09;5072344;28;20196;-72
2022/09/10 02:55:46;;;;;;;10.97;9.47;;;;;;;21.82;79.43;99343.44;5071948;28;20249;-71
2022/09/10 02:58:13;;;;;;;12.67;10.17;;;;;;;21.79;79.98;99349.38;5071976;28;20315;-72
2022/09/10 03:00:40;;;;;;;12.10;10.40;;;;;;;21.78;79.70;99350.47;5072521;28;20249;-73
2022/09/10 03:03:07;;;;;;;11.77;10.33;;;;;;;21.75;79.62;99351.00;5072039;28;20192;-71
2022/09/10 03:05:37;;;;;;;10.20;9.30;;;;;;;21.66;80.62;99347.22;5072972;28;20632;-71
2022/09/10 03:08:04;;;;;;;10.80;9.90;;;;;;;21.63;80.15;99349.63;5072096;28;20314;-71
2022/09/10 03:10:31;;;;;;;11.10;9.97;;;;;;;21.58;80.64;99355.84;5071850;28;20257;-72
2022/09/10 03:12:58;;;;;;;11.97;9.80;;;;;;;21.58;80.98;99360.44;5071884;28;20218;-72
2022/09/10 03:15:25;;;;;;;12.93;9.50;;;;;;;21.59;81.02;99362.88;5072425;28;20207;-72
2022/09/10 03:17:52;;;;;;;11.83;10.67;;;;;;;21.61;80.51;99360.72;5072014;28;20297;-72
2022/09/10 03:20:21;;;;;;;11.70;10.60;;;;;;;21.57;80.39;99353.41;5072117;28;20195;-72
2022/09/10 03:22:50;;;;;;;14.27;10.80;;;;;;;21.54;80.55;99360.19;5071725;28;20204;-71
2022/09/10 03:25:17;;;;;;;13.77;10.77;;;;;;;21.49;80.79;99352.06;5072969;28;20188;-72
2022/09/10 03:27:44;;;;;;;13.83;10.13;;;;;;;21.51;81.09;99346.41;5071716;28;20667;-70
2022/09/10 03:30:11;;;;;;;12.63;11.00;;;;;;;21.54;80.85;99343.13;5071765;28;20195;-70
2022/09/10 03:32:38;;;;;;;15.43;10.37;;;;;;;21.55;80.86;99353.69;5071650;28;20196;-71
2022/09/10 03:35:05;;;;;;;12.17;10.80;;;;;;;21.56;80.50;99347.19;5072256;28;20195;-72
2022/09/10 03:37:32;;;;;;;11.23;10.30;;;;;;;21.54;81.27;99349.38;5071557;28;20226;-71
2022/09/10 03:40:00;;;;;;;11.87;10.67;;;;;;;21.54;80.72;99353.94;5071655;28;20663;-71
2022/09/10 03:42:27;;;;;;;18.07;10.80;;;;;;;21.52;81.27;99356.91;5071424;28;20241;-72
2022/09/10 03:44:55;;;;;;;11.60;10.47;;;;;;;21.57;80.75;99353.41;5071978;28;20188;-72
2022/09/10 03:47:21;;;;;;;12.70;10.27;;;;;;;21.59;80.90;99352.06;5074709;28;20249;-72
2022/09/10 03:49:49;;;;;;;11.33;10.30;;;;;;;21.57;80.64;99356.13;5075488;28;20192;-72
2022/09/10 03:52:16;;;;;;;16.73;10.70;;;;;;;21.58;81.31;99355.03;5075457;28;20196;-73
2022/09/10 03:54:44;;;;;;;11.40;10.50;;;;;;;21.54;80.90;99354.78;5075510;28;20659;-72
2022/09/10 03:57:12;;;;;;;11.47;10.20;;;;;;;21.52;81.36;99356.91;5075265;28;20231;-73
2022/09/10 03:59:40;;;;;;;13.63;10.47;;;;;;;21.54;81.47;99348.53;5075353;28;20655;-72
2022/09/10 04:02:07;;;;;;;16.87;10.83;;;;;;;21.57;81.33;99351.53;5075994;28;20214;-72
2022/09/10 04:04:36;;;;;;;12.17;10.87;;;;;;;21.61;81.13;99352.63;5075166;28;20732;-72
2022/09/10 04:07:03;;;;;;;11.17;10.10;;;;;;;21.65;80.86;99351.00;5075320;28;20663;-73
2022/09/10 04:09:31;;;;;;;13.80;10.57;;;;;;;21.65;81.15;99355.59;5075338;28;20285;-73
2022/09/10 04:11:58;;;;;;;12.07;10.27;;;;;;;21.69;80.73;99349.38;5075122;28;20191;-72
2022/09/10 04:14:27;;;;;;;11.90;10.60;;;;;;;21.71;81.26;99355.34;5075012;28;20286;-73
2022/09/10 04:16:53;;;;;;;14.43;10.57;;;;;;;21.74;80.66;99348.56;5074733;28;20250;-72
2022/09/10 04:19:20;;;;;;;12.30;10.87;;;;;;;21.81;80.13;99349.13;5074726;28;20238;-72
2022/09/10 04:21:47;;;;;;;11.70;10.50;;;;;;;21.83;80.88;99349.63;5075009;28;20235;-72
2022/09/10 04:24:14;;;;;;;13.00;10.17;;;;;;;21.97;80.17;99353.44;5074826;28;20202;-72
2022/09/10 04:26:41;;;;;;;18.10;11.00;;;;;;;22.18;78.91;99361.25;5075598;28;20582;-71
2022/09/10 04:29:08;;;;;;;11.27;10.27;;;;;;;22.36;78.59;99367.94;5074694;28;20196;-71
2022/09/10 04:31:36;;;;;;;15.97;10.63;;;;;;;22.63;77.42;99374.66;5074830;28;20195;-71
2022/09/10 04:34:03;;;;;;;14.03;9.83;;;;;;;22.82;75.90;99374.84;5075309;28;20192;-72
2022/09/10 04:36:29;;;;;;;17.37;10.80;;;;;;;22.91;74.94;99371.25;5074931;28;20274;-71
2022/09/10 04:38:57;;;;;;;12.27;11.00;;;;;;;23.05;74.27;99360.63;5074425;28;20707;-72
2022/09/10 04:41:23;;;;;;;17.97;10.40;;;;;;;23.27;74.06;99353.75;5074748;28;20192;-71
2022/09/10 04:43:50;;;;;;;12.57;9.67;;;;;;;23.56;72.71;99359.25;5074326;28;20188;-71
2022/09/10 04:46:17;;;;;;;9.37;8.67;;;;;;;23.85;71.66;99365.50;5074674;28;20196;-71
2022/09/10 04:48:45;;;;;;;17.80;9.93;;;;;;;24.15;70.45;99360.63;5074550;28;20286;-71
2022/09/10 04:51:12;;;;;;;11.80;9.67;;;;;;;24.52;69.02;99365.38;5074559;28;20192;-71
2022/09/10 04:53:39;;;;;;;10.53;9.23;;;;;;;24.87;67.18;99352.16;5074457;28;20270;-71
2022/09/10 04:56:07;;;;;;;10.20;9.20;;;;;;;25.17;66.17;99363.72;5074771;28;20252;-71
2022/09/10 04:58:33;;;;;;;16.80;9.37;;;;;;;25.48;64.32;99363.00;5073706;28;20215;-71
2022/09/10 05:01:01;;;;;;;14.90;9.13;;;;;;;25.85;63.32;99367.56;5074100;28;20605;-71
2022/09/10 05:03:28;;;;;;;11.27;8.97;;;;;;;26.20;61.83;99373.22;5074448;28;20286;-71
2022/09/10 05:05:56;;;;;;;12.73;9.10;;;;;;;26.41;60.84;99373.66;5074554;28;20192;-71
2022/09/10 05:08:22;;;;;;;11.27;9.33;;;;;;;26.48;59.31;99376.78;5074072;28;20228;-71
2022/09/10 05:10:49;;;;;;;12.50;10.17;;;;;;;26.58;59.53;99388.31;5073921;28;20192;-71
2022/09/10 05:13:16;;;;;;;39.00;11.03;;;;;;;26.72;59.57;99396.50;5074095;28;20195;-71
2022/09/10 05:15:43;;;;;;;13.97;9.37;;;;;;;26.90;59.25;99388.19;5074166;28;20555;-70
2022/09/10 05:18:10;;;;;;;16.53;9.27;;;;;;;27.10;58.22;99374.13;5073608;28;20702;-71
2022/09/10 05:20:36;;;;;;;15.00;9.53;;;;;;;27.26;57.96;99385.53;5073948;28;20257;-71
2022/09/10 05:23:05;;;;;;;13.60;8.50;;;;;;;27.60;56.92;99389.38;5074104;28;20261;-71
2022/09/10 05:25:31;;;;;;;16.10;9.00;;;;;;;28.03;55.80;99386.97;5073965;28;20257;-71
2022/09/10 05:27:59;;;;;;;14.40;8.90;;;;;;;28.49;53.97;99390.13;5073223;28;20200;-72
2022/09/10 05:30:31;;;;;;;10.93;8.10;;;;;;;28.94;52.44;99386.09;5072802;28;20196;-71
2022/09/10 05:32:59;;;;;;;8.80;8.00;;;;;;;29.38;50.97;99404.19;5072825;28;20188;-72
2022/09/10 05:35:25;;;;;;;11.83;8.37;;;;;;;29.64;49.34;99408.59;5072594;28;20192;-72
2022/09/10 05:37:52;;;;;;;7.70;7.03;;;;;;;29.95;48.85;99394.69;5072726;28;20752;-72
2022/09/10 05:40:21;;;;;;;15.43;7.40;;;;;;;29.89;48.02;99385.06;5072023;28;20204;-72
2022/09/10 05:42:48;;;;;;;11.73;6.90;;;;;;;29.95;47.90;99384.56;5072959;28;20192;-72
2022/09/10 05:45:17;;;;;;;12.93;6.80;;;;;;;30.14;47.54;99385.03;5073741;28;20279;-71
2022/09/10 05:47:44;;;;;;;11.63;8.80;;;;;;;30.11;47.70;99393.88;5073353;28;20249;-72
2022/09/10 05:50:11;;;;;;;14.20;7.73;;;;;;;30.09;47.79;99392.59;5073702;28;20196;-71
2022/09/10 05:52:38;;;;;;;12.37;8.57;;;;;;;29.93;47.41;99384.06;5072936;28;20235;-71
2022/09/10 05:55:05;;;;;;;9.50;8.67;;;;;;;29.90;48.28;99397.63;5072989;28;20679;-71
2022/09/10 05:57:34;;;;;;;15.20;8.37;;;;;;;29.78;48.22;99390.06;5072507;28;20223;-71
2022/09/10 06:00:01;;;;;;;16.90;9.27;;;;;;;29.94;48.02;99387.63;5072704;28;20260;-76
2022/09/10 06:02:28;;;;;;;8.83;8.13;;;;;;;30.13;47.85;99386.13;5072263;28;20606;-71
2022/09/10 06:04:55;;;;;;;8.97;8.13;;;;;;;30.49;46.64;99397.50;5072882;28;20194;-71
2022/09/10 06:07:21;;;;;;;8.27;7.40;;;;;;;30.56;46.09;99383.25;5073875;28;20275;-72
2022/09/10 06:09:48;;;;;;;8.13;7.30;;;;;;;30.79;45.95;99379.94;5071572;28;20224;-70
2022/09/10 06:12:15;;;;;;;7.67;6.97;;;;;;;30.92;45.43;99383.59;5073075;28;20253;-71
2022/09/10 06:14:44;;;;;;;7.77;6.93;;;;;;;31.06;44.38;99392.38;5072857;28;20224;-72
2022/09/10 06:17:11;;;;;;;12.93;7.00;;;;;;;31.10;42.80;99391.38;5072869;28;20192;-72
2022/09/10 06:19:38;;;;;;;8.90;7.17;;;;;;;31.04;44.09;99384.50;5072285;28;20211;-71
2022/09/10 06:22:05;;;;;;;8.30;7.60;;;;;;;30.55;45.22;99377.00;5070601;28;20199;-72
2022/09/10 06:24:32;;;;;;;8.60;7.27;;;;;;;30.26;46.17;99387.09;5072265;28;20191;-71
2022/09/10 06:26:58;;;;;;;8.17;7.57;;;;;;;30.05;46.08;99386.16;5072317;28;20200;-71
2022/09/10 06:29:25;;;;;;;14.90;8.20;;;;;;;29.79;47.20;99385.38;5072536;28;20624;-68
2022/09/10 06:31:53;;;;;;;9.87;6.70;;;;;;;29.52;48.07;99391.97;5072173;28;20196;-70
2022/09/10 06:34:20;;;;;;;8.87;7.87;;;;;;;29.37;48.64;99397.94;5072680;28;20253;-72
2022/09/10 06:36:48;;;;;;;10.97;6.77;;;;;;;29.28;49.12;99399.88;5072170;28;20679;-70
2022/09/10 06:39:15;;;;;;;8.13;7.00;;;;;;;29.22;49.25;99392.94;5072645;28;20224;-71
2022/09/10 06:41:42;;;;;;;6.90;6.30;;;;;;;28.98;50.03;99387.06;5072616;28;20238;-70
2022/09/10 06:44:13;;;;;;;21.00;8.13;;;;;;;28.78;50.36;99380.25;5071807;28;20228;-71
2022/09/10 06:46:41;;;;;;;10.03;7.30;;;;;;;28.80;50.45;99374.47;5072539;28;20191;-71
2022/09/10 06:49:11;;;;;;;7.50;6.80;;;;;;;28.85;50.66;99377.06;5072072;28;20659;-71
2022/09/10 06:51:38;;;;;;;10.67;8.20;;;;;;;28.93;49.48;99381.75;5072173;28;20655;-70
2022/09/10 06:54:06;;;;;;;7.30;6.70;;;;;;;28.69;50.90;99379.44;5071807;28;20690;-72
2022/09/10 06:56:33;;;;;;;7.67;7.03;;;;;;;28.75;51.44;99372.69;5069769;28;20188;-70
2022/09/10 06:59:00;;;;;;;8.53;7.70;;;;;;;28.83;51.45;99385.56;5069836;28;20285;-70
2022/09/10 07:01:28;;;;;;;7.60;6.90;;;;;;;29.15;49.45;99379.72;5070107;28;20192;-70
2022/09/10 07:03:56;;;;;;;15.27;7.40;;;;;;;29.13;49.55;99370.22;5070023;28;20195;-71
2022/09/10 07:06:32;;;;;;;15.97;7.40;;;;;;;29.01;50.20;99354.44;5070033;28;20192;-71
2022/09/10 07:09:05;;;;;;;8.57;7.50;;;;;;;29.13;49.74;99364.75;5069587;28;20288;-70
2022/09/10 07:11:32;;;;;;;10.67;7.67;;;;;;;29.33;48.19;99366.88;5071748;28;20192;-70
2022/09/10 07:14:00;;;;;;;10.03;8.07;;;;;;;29.38;47.99;99374.91;5071819;28;20656;-71
2022/09/10 07:16:27;;;;;;;13.07;8.00;;;;;;;29.31;48.67;99377.31;5072643;28;20266;-69
2022/09/10 07:18:56;;;;;;;12.33;6.77;;;;;;;29.63;47.18;99403.47;5071918;28;20281;-70
2022/09/10 07:21:26;;;;;;;9.03;6.37;;;;;;;30.14;46.37;99398.75;5051459;28;20201;-70
2022/09/10 07:23:55;;;;;;;8.43;6.60;;;;;;;30.63;45.21;99411.81;5052293;28;20188;-71
2022/09/10 07:26:22;;;;;;;18.37;6.10;;;;;;;31.00;44.24;99410.19;5051700;28;20196;-69
2022/09/10 07:28:49;;;;;;;7.73;6.33;;;;;;;31.30;43.13;99418.09;5052783;28;20196;-69
2022/09/10 07:31:17;;;;;;;8.53;6.63;;;;;;;31.52;42.59;99415.00;5052429;28;20262;-70
2022/09/10 07:33:45;;;;;;;7.17;6.40;;;;;;;31.67;41.92;99419.91;5052123;28;20246;-70
2022/09/10 07:36:12;;;;;;;7.90;6.57;;;;;;;31.94;41.09;99418.56;5051544;28;20192;-71
2022/09/10 07:38:44;;;;;;;8.07;6.47;;;;;;;32.25;40.43;99408.69;5051815;28;20228;-70
2022/09/10 07:41:12;;;;;;;6.77;6.23;;;;;;;32.55;40.13;99395.59;5051544;28;20188;-70
2022/09/10 07:43:39;;;;;;;6.93;6.10;;;;;;;32.82;39.52;99392.19;5051875;28;20195;-72
2022/09/10 07:46:06;;;;;;;6.13;5.70;;;;;;;33.00;38.33;99385.31;5051728;28;20243;-71
2022/09/10 07:48:33;;;;;;;8.68;6.13;;;;;;;33.12;38.49;99388.03;5052168;28;20631;-71
2022/09/10 07:51:03;;;;;;;6.70;5.93;;;;;;;33.11;38.27;99376.22;5051774;28;20276;-70
2022/09/10 07:53:30;;;;;;;9.37;6.30;;;;;;;33.07;38.15;99375.31;5051506;28;20629;-69
2022/09/10 07:56:03;;;;;;;6.43;5.93;;;;;;;32.99;38.27;99367.97;5051705;28;20193;-70
2022/09/10 07:58:30;;;;;;;7.90;6.37;;;;;;;33.05;37.95;99372.09;5051570;28;20220;-70
2022/09/10 08:00:58;;;;;;;7.18;6.53;;;;;;;33.14;37.41;99364.50;5051728;28;20201;-70
2022/09/10 08:03:25;;;;;;;6.47;5.83;;;;;;;32.83;38.27;99378.06;5052051;28;20201;-69
2022/09/10 08:05:52;;;;;;;13.60;7.23;;;;;;;32.79;38.98;99374.38;5051258;28;20656;-70
2022/09/10 08:08:19;;;;;;;7.27;6.77;;;;;;;32.42;39.42;99372.75;5051947;28;20298;-70
2022/09/10 08:10:47;;;;;;;7.77;7.03;;;;;;;32.01;40.10;99364.63;5051683;28;20223;-70
2022/09/10 08:13:15;;;;;;;8.17;6.83;;;;;;;31.88;40.74;99374.00;5051274;28;20672;-70
2022/09/10 08:15:43;;;;;;;10.07;7.33;;;;;;;31.77;41.40;99378.28;5052029;28;20193;-69
2022/09/10 08:18:10;;;;;;;16.50;7.17;;;;;;;31.66;41.94;99377.09;5051402;28;20755;-71
2022/09/10 08:20:38;;;;;;;13.50;7.40;;;;;;;31.71;40.80;99376.06;5065524;28;20196;-70
2022/09/10 08:23:05;;;;;;;8.03;6.40;;;;;;;31.90;40.57;99376.41;5071288;28;20202;-71
2022/09/10 08:25:32;;;;;;;6.73;6.10;;;;;;;32.13;40.35;99375.66;5071203;28;20198;-69
2022/09/10 08:28:00;;;;;;;8.43;6.53;;;;;;;32.25;40.16;99380.38;5071207;28;20198;-69
2022/09/10 08:30:30;;;;;;;10.07;6.57;;;;;;;32.39;40.15;99381.72;5071636;28;20623;-69
2022/09/10 08:32:57;;;;;;;7.57;6.97;;;;;;;32.27;40.25;99378.09;5072963;28;20547;-70
2022/09/10 08:35:24;;;;;;;8.77;6.73;;;;;;;32.17;40.37;99382.09;5075045;28;20198;-70
2022/09/10 08:37:51;;;;;;;7.67;6.97;;;;;;;32.11;40.67;99386.22;5075711;28;20249;-70
2022/09/10 08:40:18;;;;;;;14.60;8.40;;;;;;;31.50;41.92;99383.53;5075046;28;20223;-71
2022/09/10 08:42:49;;;;;;;8.57;6.97;;;;;;;31.82;41.80;99386.34;5074550;28;20665;-70
2022/09/10 08:45:19;;;;;;;11.10;6.70;;;;;;;31.80;41.67;99374.88;5074789;28;20199;-70
2022/09/10 08:47:55;;;;;;;11.07;7.37;;;;;;;31.92;41.28;99369.44;5074806;28;20195;-70
2022/09/10 08:50:29;;;;;;;8.10;6.70;;;;;;;32.21;40.84;99354.75;5074331;28;20191;-69
2022/09/10 08:53:03;;;;;;;7.37;6.70;;;;;;;32.51;40.19;99334.16;5075490;28;20607;-69
2022/09/10 08:55:33;;;;;;;8.43;6.63;;;;;;;32.70;39.86;99343.44;5074506;28;20180;-70
2022/09/10 08:58:10;;;;;;;7.23;6.57;;;;;;;32.93;39.11;99350.09;5074181;28;20188;-70
2022/09/10 09:00:39;;;;;;;7.97;6.93;;;;;;;33.10;38.57;99349.03;5074291;28;20195;-70
2022/09/10 09:03:14;;;;;;;7.60;6.90;;;;;;;33.23;38.42;99354.16;5074163;28;20200;-70
2022/09/10 09:05:47;;;;;;;9.60;7.10;;;;;;;33.28;38.32;99334.63;5074042;28;20647;-69
2022/09/10 09:08:17;;;;;;;10.07;6.70;;;;;;;33.58;38.01;99323.31;5074952;28;20228;-70
2022/09/10 09:10:49;;;;;;;8.30;7.55;;;;;;;33.62;38.74;99324.19;5074655;28;20245;-70
2022/09/10 09:13:42;;;;;;;7.40;6.80;;;;;;;33.33;38.00;99328.91;5074561;28;20619;-70
2022/09/10 09:16:27;;;;;;;8.00;6.38;;;;;;;33.37;38.18;99323.50;5073889;28;20667;-70
2022/09/10 09:19:07;;;;;;;10.88;7.28;;;;;;;33.63;37.64;99323.06;5073714;28;20215;-69
2022/09/10 09:21:44;;;;;;;14.25;6.57;;;;;;;33.69;36.88;99310.63;5054169;28;20185;-69
2022/09/10 09:24:21;;;;;;;7.68;6.78;;;;;;;33.89;36.40;99301.34;5054798;28;20184;-69
2022/09/10 09:26:48;;;;;;;9.38;7.60;;;;;;;34.02;36.14;99300.13;5054099;28;20216;-70
2022/09/10 09:29:20;;;;;;;8.05;7.20;;;;;;;33.65;36.71;99290.44;5053950;28;20284;-70
2022/09/10 09:31:50;;;;;;;8.18;7.40;;;;;;;33.51;37.18;99295.56;5053986;28;20188;-70
2022/09/10 09:34:22;;;;;;;7.93;6.95;;;;;;;33.35;37.53;99281.72;5054034;28;20671;-70
2022/09/10 09:36:51;;;;;;;8.77;7.55;;;;;;;33.25;37.32;99282.22;5053542;28;20700;-69
2022/09/10 09:39:23;;;;;;;12.88;7.63;;;;;;;33.06;37.68;99269.09;5053407;28;20273;-70
2022/09/10 09:41:59;;;;;;;8.37;7.17;;;;;;;33.01;37.80;99277.59;5053704;28;20192;-70
2022/09/10 09:44:33;;;;;;;7.90;6.77;;;;;;;32.92;37.89;99278.88;5053428;28;20195;-69
2022/09/10 09:47:00;;;;;;;13.57;7.23;;;;;;;32.81;37.95;99267.56;5053457;28;20329;-71
2022/09/10 09:49:29;;;;;;;10.33;7.00;;;;;;;32.92;38.00;99257.63;5053778;28;20694;-69
2022/09/10 09:51:57;;;;;;;7.47;6.87;;;;;;;33.26;37.51;99243.31;5053713;28;20193;-69
2022/09/10 09:54:28;;;;;;;7.87;7.10;;;;;;;33.55;36.69;99241.38;5054169;28;20199;-70
2022/09/10 09:56:57;;;;;;;8.05;6.55;;;;;;;33.74;36.39;99238.69;5053726;28;20185;-70
2022/09/10 09:59:27;;;;;;;7.82;7.18;;;;;;;33.90;35.62;99236.78;5053387;28;20608;-69
2022/09/10 10:01:58;;;;;;;6.68;6.05;;;;;;;33.90;35.51;99228.53;5053001;28;20291;-69
2022/09/10 10:04:30;;;;;;;11.20;7.47;;;;;;;33.96;35.29;99229.88;5054242;28;20239;-69
2022/09/10 10:06:58;;;;;;;7.78;7.05;;;;;;;33.96;35.63;99227.13;5053660;28;20224;-69
2022/09/10 10:09:28;;;;;;;7.15;6.60;;;;;;;34.14;35.51;99225.56;5053910;28;20315;-69
2022/09/10 10:11:57;;;;;;;14.27;7.80;;;;;;;34.30;34.78;99221.66;5052641;28;20254;-69
2022/09/10 10:14:34;;;;;;;8.25;6.25;;;;;;;34.37;34.39;99224.59;5052678;28;20611;-70
2022/09/10 10:17:01;;;;;;;7.40;6.70;;;;;;;34.21;35.38;99223.78;5052982;28;20227;-69
2022/09/10 10:19:32;;;;;;;13.73;8.30;;;;;;;34.18;35.40;99215.44;5057275;28;20212;-69
2022/09/10 10:22:21;;;;;;;9.68;7.25;;;;;;;34.27;35.49;99219.59;5072609;28;20199;-68
2022/09/10 10:24:50;;;;;;;14.00;7.90;;;;;;;33.60;36.33;99213.53;5073418;28;20225;-69
2022/09/10 10:27:18;;;;;;;9.98;6.93;;;;;;;33.72;36.07;99203.22;5072890;28;20191;-69
2022/09/10 10:29:54;;;;;;;9.27;7.22;;;;;;;33.85;36.23;99195.72;5072934;28;20269;-68
2022/09/10 10:32:25;;;;;;;7.28;6.63;;;;;;;33.78;36.24;99193.56;5072893;28;20278;-69
2022/09/10 10:35:04;;;;;;;11.20;7.10;;;;;;;33.82;36.03;99197.22;5073432;28;20188;-69
2022/09/10 10:37:38;;;;;;;13.10;8.43;;;;;;;33.92;35.64;99187.63;5072246;28;20192;-69
2022/09/10 10:40:18;;;;;;;6.90;6.28;;;;;;;33.96;35.59;99186.53;5072167;28;20237;-69
2022/09/10 10:42:59;;;;;;;13.45;7.22;;;;;;;34.08;35.62;99180.94;5072484;28;20184;-69
2022/09/10 10:45:36;;;;;;;7.97;6.68;;;;;;;34.13;34.91;99182.63;5073068;28;20234;-69
2022/09/10 10:48:11;;;;;;;8.05;6.97;;;;;;;34.20;35.12;99174.50;5072213;28;20220;-69
2022/09/10 10:50:51;;;;;;;8.88;7.10;;;;;;;34.18;35.16;99165.78;5072111;28;20249;-70
2022/09/10 10:53:47;;;;;;;9.18;7.18;;;;;;;34.27;35.33;99171.91;5071895;28;20728;-69
2022/09/10 10:56:19;;;;;;;8.88;6.95;;;;;;;34.45;34.69;99170.38;5071604;28;20241;-69
2022/09/10 10:59:11;;;;;;;7.55;6.85;;;;;;;34.35;34.56;99176.44;5071825;28;20227;-69
2022/09/10 11:01:44;;;;;;;9.15;7.07;;;;;;;34.30;34.58;99155.44;5071849;28;20185;-69
2022/09/10 11:04:25;;;;;;;10.93;7.10;;;;;;;34.34;34.68;99156.38;5073068;28;20294;-69
2022/09/10 11:06:58;;;;;;;8.60;6.60;;;;;;;34.14;34.98;99151.94;5071869;28;20670;-69
2022/09/10 11:09:30;;;;;;;8.07;7.20;;;;;;;33.90;35.48;99145.81;5072889;28;20243;-69
2022/09/10 11:12:01;;;;;;;9.23;6.78;;;;;;;33.66;36.23;99149.53;5072112;28;20605;-69
2022/09/10 11:14:38;;;;;;;9.88;7.28;;;;;;;33.28;36.88;99139.09;5072175;28;20253;-69
2022/09/10 11:17:12;;;;;;;8.05;6.78;;;;;;;33.19;36.93;99135.72;5071283;28;20712;-70
2022/09/10 11:19:42;;;;;;;13.07;7.28;;;;;;;33.18;36.93;99141.56;5072156;28;20265;-69
2022/09/10 11:22:16;;;;;;;10.52;7.20;;;;;;;32.96;37.31;99140.19;5072734;28;20210;-70
2022/09/10 11:24:48;;;;;;;8.67;7.23;;;;;;;32.94;37.68;99134.25;5071721;28;20192;-69
2022/09/10 11:27:19;;;;;;;12.00;6.95;;;;;;;32.98;37.53;99135.13;5071836;28;20180;-69
2022/09/10 11:29:54;;;;;;;7.20;6.60;;;;;;;33.04;37.57;99132.94;5072556;28;20187;-69
2022/09/10 11:32:30;;;;;;;7.90;6.20;;;;;;;33.13;37.60;99128.88;5071889;28;20188;-69
2022/09/10 11:35:06;;;;;;;8.40;6.07;;;;;;;33.33;36.92;99123.50;5072668;28;20179;-69
2022/09/10 11:37:53;;;;;;;8.37;6.60;;;;;;;33.16;37.00;99110.84;5071938;28;20219;-69
2022/09/10 11:40:27;;;;;;;8.13;7.37;;;;;;;33.08;37.05;99109.84;5072513;28;20208;-69